Terminal Aerodrome Forecast
Issued by NWS

Home | Current Version | Previous Version | Text Only | Print | Product List | Glossary On
Versions: 1 2 3 4 5 6 7 8 9 10 11 12 13
000
FTUS41 KBTV 312335
TAFRUT
TAF
KRUT 312335Z 0100/0124 18004KT P6SM OVC070
     FM010500 00000KT P6SM OVC040
     FM010600 00000KT P6SM OVC025
     FM010900 00000KT P6SM BKN015
     FM011400 33009KT P6SM BKN060
      AMD LTD TO CLD VIS AND WIND=

USA.gov is the U.S. government's official web portal to all federal, state and local government web resources and services.